Time;durP1;ratioP1;P1;durP2;ratioP2;P2;SDS_P1;SDS_P2;PMS_P1;PMS_P2;Temp;Humidity;BMP_temperature;BMP_pressure;BME280_temperature;BME280_humidity;BME280_pressure;Samples;Min_cycle;Max_cycle;Signal;HPM_P1;HPM_P2
2023/05/24 04:30:41;;;;;;;;;3.75;3.00;;;;;13.12;57.46;101952.75;5078714;27;45725;-76
2023/05/24 04:33:07;;;;;;;;;5.50;3.25;;;;;13.07;57.49;101951.19;5062176;28;46504;-77
2023/05/24 04:35:32;;;;;;;;;4.00;4.00;;;;;13.10;57.12;101954.63;5075808;28;45488;-76
2023/05/24 04:37:58;;;;;;;;;8.00;4.00;;;;;13.12;57.38;101952.75;5076390;28;45287;-76
2023/05/24 04:40:23;;;;;;;;;5.50;3.50;;;;;13.14;57.30;101963.50;5075880;28;45514;-76
2023/05/24 04:42:49;;;;;;;;;9.00;6.00;;;;;13.19;57.34;101956.13;5075784;28;46175;-76
2023/05/24 04:45:15;;;;;;;;;5.00;5.00;;;;;13.22;56.67;101966.78;5076029;28;45510;-77
2023/05/24 04:47:41;;;;;;;;;7.25;4.00;;;;;13.25;56.45;101972.97;5075781;28;45334;-76
2023/05/24 04:50:07;;;;;;;;;4.50;4.50;;;;;13.22;56.84;101954.22;5075789;28;45275;-76
2023/05/24 04:52:32;;;;;;;;;5.25;5.25;;;;;13.28;56.49;101955.78;5057333;28;47081;-76
2023/05/24 04:54:57;;;;;;;;;4.00;3.25;;;;;13.24;55.96;101956.84;5075698;28;45831;-76
2023/05/24 04:57:23;;;;;;;;;4.50;4.00;;;;;13.18;56.43;101960.63;5075818;28;45378;-75
2023/05/24 04:59:48;;;;;;;;;5.25;4.00;;;;;13.27;56.32;101971.06;5075562;28;45476;-74
2023/05/24 05:02:13;;;;;;;;;4.00;4.00;;;;;13.27;56.38;101964.78;5075323;28;46082;-76
2023/05/24 05:04:39;;;;;;;;;4.25;3.75;;;;;13.21;56.13;101957.84;5075434;28;45402;-76
2023/05/24 05:07:04;;;;;;;;;3.75;3.75;;;;;13.23;56.15;101958.66;5075954;28;45299;-77
2023/05/24 05:09:29;;;;;;;;;6.50;4.50;;;;;13.20;56.57;101948.00;5075571;28;45169;-75
2023/05/24 05:11:55;;;;;;;;;2.00;2.00;;;;;13.35;56.54;101972.59;5079302;28;45602;-75
2023/05/24 05:14:20;;;;;;;;;9.00;5.00;;;;;13.39;56.23;101969.72;5075396;28;45362;-76
2023/05/24 05:16:45;;;;;;;;;2.00;2.00;;;;;13.40;56.50;101959.84;5075228;28;45546;-75
2023/05/24 05:19:11;;;;;;;;;4.00;4.00;;;;;13.46;56.31;101973.06;5075273;28;45520;-74
2023/05/24 05:21:38;;;;;;;;;9.25;4.75;;;;;13.42;55.79;101960.66;5075461;28;45400;-75
2023/05/24 05:24:04;;;;;;;;;5.75;4.00;;;;;13.36;55.81;101942.00;5075100;28;45393;-75
2023/05/24 05:26:29;;;;;;;;;6.50;4.75;;;;;13.53;55.76;101966.50;5075654;28;45228;-74
2023/05/24 05:28:56;;;;;;;;;7.50;4.00;;;;;13.51;55.80;101963.00;5075366;28;45559;-74
2023/05/24 05:31:22;;;;;;;;;5.00;3.00;;;;;13.58;55.88;101961.81;5074898;28;45385;-77
2023/05/24 05:33:48;;;;;;;;;4.00;4.00;;;;;13.57;55.54;101943.91;5075200;28;45441;-80
2023/05/24 05:36:13;;;;;;;;;3.75;3.00;;;;;13.62;55.13;101948.16;5075712;28;45364;-77
2023/05/24 05:38:38;;;;;;;;;5.00;3.25;;;;;13.77;55.44;101962.88;5075163;28;45292;-75
2023/05/24 05:41:04;;;;;;;;;4.25;4.25;;;;;13.79;54.91;101962.78;5075410;28;45323;-73
2023/05/24 05:43:30;;;;;;;;;4.50;3.00;;;;;13.85;54.84;101962.56;5073459;28;45338;-72
2023/05/24 05:45:55;;;;;;;;;6.25;4.50;;;;;13.90;55.19;101977.59;5075336;28;45307;-75
2023/05/24 05:48:20;;;;;;;;;6.00;5.75;;;;;13.93;54.91;101961.31;5074617;28;45523;-73
2023/05/24 05:50:46;;;;;;;;;7.00;4.25;;;;;13.96;54.40;101962.97;5071842;28;48758;-73
2023/05/24 05:53:11;;;;;;;;;4.50;4.50;;;;;14.01;54.92;101969.09;5074499;28;45203;-74
2023/05/24 05:55:37;;;;;;;;;7.00;5.50;;;;;14.05;54.58;101965.31;5070135;28;45342;-75
2023/05/24 05:58:02;;;;;;;;;7.00;6.00;;;;;14.01;54.01;101963.69;5081208;27;45505;-73
2023/05/24 06:00:27;;;;;;;;;6.25;6.25;;;;;14.03;54.32;101980.69;5073897;28;45420;-74
2023/05/24 06:02:53;;;;;;;;;6.00;4.25;;;;;14.04;54.48;101974.31;5074350;28;45223;-75
2023/05/24 06:05:18;;;;;;;;;4.50;4.50;;;;;14.07;53.98;101973.34;5054402;28;45390;-75
2023/05/24 06:07:44;;;;;;;;;7.00;5.00;;;;;14.09;54.19;101974.16;5053556;28;45501;-74
2023/05/24 06:10:10;;;;;;;;;4.75;4.75;;;;;14.10;54.14;101974.09;5060678;28;46471;-74
2023/05/24 06:12:37;;;;;;;;;8.00;6.25;;;;;14.20;53.96;101971.91;5069391;28;45325;-74
2023/05/24 06:15:04;;;;;;;;;8.50;5.50;;;;;14.24;53.63;101970.81;5069836;28;45410;-75
2023/05/24 06:17:29;;;;;;;;;8.00;6.00;;;;;14.26;53.75;101971.66;5055768;28;47339;-76
2023/05/24 06:19:54;;;;;;;;;7.00;5.00;;;;;14.27;53.67;101979.69;5074399;28;51312;-73
2023/05/24 06:22:20;;;;;;;;;7.50;6.00;;;;;14.31;54.12;101970.50;5074368;28;45273;-74
2023/05/24 06:24:46;;;;;;;;;10.75;6.00;;;;;14.34;53.50;101965.00;5055859;28;45514;-74
2023/05/24 06:27:13;;;;;;;;;4.00;4.00;;;;;14.39;53.37;101972.91;5074311;28;45280;-73
2023/05/24 06:29:38;;;;;;;;;7.00;7.00;;;;;14.48;53.32;101985.13;5056206;28;47288;-74
2023/05/24 06:32:04;;;;;;;;;5.50;4.25;;;;;14.49;53.13;101981.50;5073736;28;45220;-76
2023/05/24 06:34:29;;;;;;;;;6.00;6.00;;;;;14.47;53.02;101975.28;5056002;28;45199;-75
2023/05/24 06:36:55;;;;;;;;;8.00;5.00;;;;;14.46;53.14;101968.16;5074033;28;45242;-74
2023/05/24 06:39:20;;;;;;;;;9.25;7.25;;;;;14.55;52.58;101987.50;5074541;28;45496;-74
2023/05/24 06:41:46;;;;;;;;;5.00;5.00;;;;;14.55;52.85;101994.72;5074381;28;45385;-74
2023/05/24 06:44:11;;;;;;;;;8.50;5.75;;;;;14.57;52.99;101984.75;5074374;28;45409;-74
2023/05/24 06:46:38;;;;;;;;;7.75;5.75;;;;;14.60;52.94;101990.91;5052377;28;46171;-74
2023/05/24 06:49:03;;;;;;;;;7.00;6.75;;;;;14.66;52.80;101990.63;5069280;28;46192;-74
2023/05/24 06:51:29;;;;;;;;;7.00;7.00;;;;;14.71;52.76;101990.44;5072846;28;45331;-73
2023/05/24 06:53:55;;;;;;;;;7.50;6.00;;;;;14.73;52.45;101993.94;5069656;28;45608;-73
2023/05/24 06:56:20;;;;;;;;;5.75;5.25;;;;;14.76;53.09;101991.13;5077623;28;46492;-74
2023/05/24 06:58:46;;;;;;;;;8.00;6.75;;;;;14.77;52.17;101987.47;5084436;27;45417;-74
2023/05/24 07:01:13;;;;;;;;;6.50;5.00;;;;;14.82;52.41;101987.25;5077330;28;45244;-74
2023/05/24 07:03:38;;;;;;;;;2.50;2.50;;;;;14.83;51.83;101989.00;5077580;28;45456;-74
2023/05/24 07:06:04;;;;;;;;;6.50;6.00;;;;;14.86;52.02;101992.47;5077647;28;45192;-74
2023/05/24 07:08:29;;;;;;;;;6.50;5.50;;;;;14.84;51.97;101985.38;5077368;28;46109;-73
2023/05/24 07:10:55;;;;;;;;;10.50;7.50;;;;;14.90;51.86;101999.47;5077582;28;45319;-74
2023/05/24 07:13:20;;;;;;;;;8.00;5.75;;;;;14.92;51.61;101992.19;5071530;28;45357;-74
2023/05/24 07:15:46;;;;;;;;;1.50;0.50;;;;;14.90;51.79;101982.41;5065015;28;45370;-74
2023/05/24 07:18:12;;;;;;;;;7.75;6.00;;;;;15.06;51.57;102008.66;5057396;28;46107;-74
2023/05/24 07:20:37;;;;;;;;;6.25;5.50;;;;;15.10;50.52;101999.47;5057066;28;45365;-74
2023/05/24 07:23:03;;;;;;;;;5.00;5.00;;;;;15.13;51.62;101996.66;5057015;28;45478;-77
2023/05/24 07:25:29;;;;;;;;;7.00;6.25;;;;;15.15;50.94;101994.75;5057060;28;45784;-74
2023/05/24 07:27:54;;;;;;;;;7.25;6.50;;;;;15.23;51.02;102007.03;5056769;28;46116;-75
2023/05/24 07:30:20;;;;;;;;;7.00;4.00;;;;;15.18;51.02;101988.34;5057289;28;45307;-77
2023/05/24 07:32:46;;;;;;;;;7.00;5.00;;;;;15.29;51.02;101993.25;5057236;28;45411;-73
2023/05/24 07:35:12;;;;;;;;;8.75;6.25;;;;;15.37;49.87;101991.97;5057583;28;45526;-75
2023/05/24 07:37:38;;;;;;;;;9.00;5.50;;;;;15.30;50.78;101981.50;5057311;28;46185;-76
2023/05/24 07:40:05;;;;;;;;;6.25;5.00;;;;;15.41;50.17;102007.06;5057117;28;45265;-73
2023/05/24 07:42:31;;;;;;;;;9.00;8.25;;;;;15.42;50.08;102003.41;5057209;28;45494;-75
2023/05/24 07:44:56;;;;;;;;;6.50;5.50;;;;;15.46;49.59;102002.34;5056836;28;45574;-74
2023/05/24 07:47:21;;;;;;;;;6.50;5.75;;;;;15.45;49.28;101995.19;5056037;28;54571;-73
2023/05/24 07:49:47;;;;;;;;;7.50;6.00;;;;;15.51;49.34;101997.59;5056546;28;45280;-74
2023/05/24 07:52:12;;;;;;;;;4.00;4.00;;;;;15.53;50.01;102000.22;5063901;28;45446;-74
2023/05/24 07:54:37;;;;;;;;;9.50;5.00;;;;;15.58;50.09;102003.63;5077018;28;45595;-74
2023/05/24 07:57:03;;;;;;;;;7.75;7.25;;;;;15.66;49.50;102011.38;5077959;27;50796;-75
2023/05/24 07:59:28;;;;;;;;;5.75;5.00;;;;;15.65;48.97;101999.66;5083758;27;45431;-74
2023/05/24 08:01:54;;;;;;;;;5.75;5.50;;;;;15.67;48.76;102005.88;5076415;28;45591;-73
2023/05/24 08:04:20;;;;;;;;;6.25;4.75;;;;;15.70;49.52;102010.28;5076311;28;46037;-74
2023/05/24 08:06:45;;;;;;;;;6.00;5.00;;;;;15.72;48.51;102003.88;5075373;28;46047;-73
2023/05/24 08:09:11;;;;;;;;;7.00;5.50;;;;;15.78;49.06;102005.38;5076458;28;45345;-75
2023/05/24 08:11:36;;;;;;;;;4.75;4.75;;;;;15.79;48.68;102009.84;5076564;28;46096;-74
2023/05/24 08:14:02;;;;;;;;;5.50;5.50;;;;;15.81;48.25;102010.66;5066214;28;48641;-73
2023/05/24 08:16:27;;;;;;;;;4.50;4.50;;;;;15.83;48.17;102004.22;5057864;28;46331;-74
2023/05/24 08:18:53;;;;;;;;;7.75;5.50;;;;;15.81;48.42;101989.91;5076428;28;45378;-73
2023/05/24 08:21:19;;;;;;;;;9.25;5.00;;;;;15.86;48.33;102003.19;5076592;28;45448;-74
2023/05/24 08:23:44;;;;;;;;;5.25;4.25;;;;;15.89;47.80;102003.06;5076521;28;45722;-75
2023/05/24 08:26:09;;;;;;;;;6.00;4.00;;;;;15.85;47.95;101996.91;5076507;28;46953;-74
2023/05/24 08:28:35;;;;;;;;;6.00;3.75;;;;;15.84;47.96;101994.28;5076763;28;45213;-75
2023/05/24 08:31:00;;;;;;;;;4.00;3.00;;;;;15.92;47.78;101999.31;5076162;28;45384;-74
2023/05/24 08:33:26;;;;;;;;;4.50;4.50;;;;;16.00;46.71;102013.34;5076388;28;45318;-75
2023/05/24 08:35:51;;;;;;;;;5.00;5.00;;;;;16.03;46.23;101999.69;5076197;28;45517;-73
2023/05/24 08:38:17;;;;;;;;;3.50;2.00;;;;;16.04;44.88;101987.91;5058120;28;45391;-74
2023/05/24 08:40:42;;;;;;;;;4.25;2.00;;;;;16.08;45.07;101994.91;5076003;28;45372;-75
2023/05/24 08:43:10;;;;;;;;;6.50;4.00;;;;;16.11;45.59;102001.06;5076271;28;45590;-74
2023/05/24 08:45:39;;;;;;;;;5.50;5.00;;;;;16.19;46.09;101987.16;5075825;28;45346;-73
2023/05/24 08:48:05;;;;;;;;;4.50;4.00;;;;;16.22;45.71;101990.59;5076337;28;45269;-75
2023/05/24 08:50:31;;;;;;;;;4.75;4.75;;;;;16.39;45.75;102006.00;5075930;28;45598;-74
2023/05/24 08:52:58;;;;;;;;;6.75;6.00;;;;;16.45;45.09;102002.97;5068412;28;45480;-73
2023/05/24 08:55:24;;;;;;;;;4.00;4.00;;;;;16.48;44.52;101997.41;5075717;28;46206;-73
2023/05/24 08:57:50;;;;;;;;;4.50;4.50;;;;;16.50;43.71;102003.59;5068927;28;45381;-74
2023/05/24 09:00:16;;;;;;;;;5.25;3.75;;;;;16.51;43.60;101991.81;5075868;28;45473;-73
2023/05/24 09:02:44;;;;;;;;;3.25;3.00;;;;;16.56;41.98;101994.31;5076013;28;45542;-75
2023/05/24 09:05:15;;;;;;;;;2.00;2.00;;;;;16.58;42.02;101987.00;5075513;28;46561;-75
2023/05/24 09:07:41;;;;;;;;;4.00;4.00;;;;;16.63;42.02;101984.94;5075960;28;45500;-74
2023/05/24 09:10:08;;;;;;;;;4.50;3.50;;;;;16.67;42.67;101988.38;5075835;28;45260;-74
2023/05/24 09:12:36;;;;;;;;;4.25;4.25;;;;;16.68;42.25;101984.69;5073874;28;45327;-75
2023/05/24 09:15:02;;;;;;;;;8.75;4.25;;;;;16.75;41.21;101980.75;5075642;28;45371;-74
2023/05/24 09:17:29;;;;;;;;;3.50;2.25;;;;;16.75;40.63;101981.63;5075297;28;45377;-76
2023/05/24 09:19:54;;;;;;;;;4.50;4.50;;;;;16.76;40.20;101977.09;5075896;28;45364;-73
2023/05/24 09:22:24;;;;;;;;;4.50;4.50;;;;;16.85;39.79;101982.00;5075277;28;45518;-75
2023/05/24 09:24:50;;;;;;;;;2.75;2.50;;;;;16.89;40.03;101981.75;5075761;28;45945;-74
2023/05/24 09:27:21;;;;;;;;;5.75;2.50;;;;;16.92;39.26;101976.19;5075326;28;45340;-74
2023/05/24 09:29:53;;;;;;;;;2.00;2.00;;;;;16.98;38.70;101983.13;5075973;28;45233;-74
2023/05/24 09:32:22;;;;;;;;;5.00;4.00;;;;;16.93;38.25;101980.63;5074792;28;46432;-73
2023/05/24 09:34:48;;;;;;;;;6.00;4.00;;;;;16.89;38.57;101961.94;5075323;28;46789;-74
2023/05/24 09:37:17;;;;;;;;;2.00;2.00;;;;;16.88;38.17;101973.72;5075092;28;45522;-75
2023/05/24 09:39:46;;;;;;;;;3.00;3.00;;;;;16.92;38.01;101975.31;5075577;28;45333;-74
2023/05/24 09:42:33;;;;;;;;;3.00;2.00;;;;;16.93;37.52;101968.91;5075245;28;45219;-76
2023/05/24 09:45:10;;;;;;;;;4.00;3.00;;;;;16.92;38.05;101969.91;5075148;28;45329;-75
2023/05/24 09:47:38;;;;;;;;;3.00;2.25;;;;;17.02;37.71;101963.00;5056737;28;45515;-74
2023/05/24 09:50:10;;;;;;;;;1.25;1.25;;;;;17.06;37.17;101974.56;5056822;28;45292;-76
2023/05/24 09:52:36;;;;;;;;;3.00;3.00;;;;;17.11;36.46;101976.06;5064696;28;45643;-75
2023/05/24 09:55:15;;;;;;;;;3.00;2.00;;;;;17.14;35.99;101972.34;5054416;28;45493;-73
2023/05/24 09:57:43;;;;;;;;;4.00;2.00;;;;;17.18;36.27;101973.94;5079800;27;45210;-74
2023/05/24 10:00:16;;;;;;;;;2.00;2.00;;;;;17.18;37.39;101966.66;5077095;27;45373;-73
2023/05/24 10:02:42;;;;;;;;;3.00;3.00;;;;;17.25;36.38;101968.09;5074589;28;45954;-74
2023/05/24 10:05:10;;;;;;;;;2.00;2.00;;;;;17.25;35.35;101970.81;5074451;28;45280;-75
2023/05/24 10:07:36;;;;;;;;;4.00;2.50;;;;;17.27;35.52;101965.28;5074704;28;45281;-75
2023/05/24 10:10:04;;;;;;;;;2.75;2.75;;;;;17.33;36.09;101963.13;5074843;28;45409;-73
2023/05/24 10:12:30;;;;;;;;;2.75;2.75;;;;;17.38;35.76;101971.00;5070521;28;45483;-76
2023/05/24 10:14:56;;;;;;;;;2.00;2.00;;;;;17.40;35.83;101964.53;5068428;28;45374;-73
2023/05/24 10:17:23;;;;;;;;;1.00;1.00;;;;;17.34;36.07;101943.19;5074671;28;45303;-74
2023/05/24 10:19:48;;;;;;;;;3.00;2.00;;;;;17.44;35.91;101950.81;5074655;28;45288;-75
2023/05/24 10:22:14;;;;;;;;;3.00;2.00;;;;;17.50;35.62;101940.50;5056682;28;46261;-73
2023/05/24 10:24:45;;;;;;;;;3.00;2.25;;;;;17.55;35.79;101954.66;5074512;28;47260;-75
2023/05/24 10:27:19;;;;;;;;;2.00;2.00;;;;;17.63;35.63;101960.56;5074513;28;45224;-73
2023/05/24 10:29:50;;;;;;;;;1.75;1.75;;;;;17.68;35.51;101954.91;5074139;28;45311;-74
2023/05/24 10:32:17;;;;;;;;;1.75;1.75;;;;;17.73;35.85;101948.25;5073989;28;45591;-76
2023/05/24 10:34:45;;;;;;;;;3.00;3.00;;;;;17.81;36.27;101944.22;5074393;28;45409;-74
2023/05/24 10:37:11;;;;;;;;;2.25;2.25;;;;;17.82;35.34;101936.00;5074196;28;45338;-74
2023/05/24 10:39:36;;;;;;;;;1.75;1.75;;;;;17.86;35.53;101937.59;5074663;28;45528;-73
2023/05/24 10:42:04;;;;;;;;;2.75;2.75;;;;;17.89;34.32;101933.81;5074433;28;45488;-74
2023/05/24 10:44:30;;;;;;;;;2.75;2.75;;;;;17.99;34.57;101945.88;5074197;28;47341;-74
2023/05/24 10:47:14;;;;;;;;;1.75;1.75;;;;;18.05;35.38;101938.25;5073782;28;45350;-75
2023/05/24 10:49:51;;;;;;;;;3.25;2.75;;;;;18.11;35.34;101948.78;5074027;28;45354;-74
2023/05/24 10:52:16;;;;;;;;;3.75;2.25;;;;;18.20;34.80;101941.94;5066441;28;45337;-75
2023/05/24 10:55:04;;;;;;;;;2.75;2.75;;;;;18.23;33.97;101925.44;5074074;28;46540;-76
2023/05/24 10:57:31;;;;;;;;;3.75;1.50;;;;;18.33;32.91;101942.06;5067079;28;46083;-74
2023/05/24 11:00:17;;;;;;;;;2.75;1.50;;;;;18.40;33.05;101952.47;5074290;27;45400;-74
2023/05/24 11:02:43;;;;;;;;;2.50;2.50;;;;;18.50;33.10;101945.53;5074444;28;45465;-76
2023/05/24 11:05:08;;;;;;;;;3.50;1.75;;;;;18.57;32.34;101946.06;5074669;28;45320;-74
2023/05/24 11:07:41;;;;;;;;;3.75;1.75;;;;;18.65;32.66;101945.59;5074338;28;45597;-75
2023/05/24 11:10:13;;;;;;;;;2.50;1.25;;;;;18.71;31.73;101940.69;5068603;28;45204;-75
2023/05/24 11:12:40;;;;;;;;;2.75;2.75;;;;;18.78;31.99;101942.06;5064891;28;45916;-74
2023/05/24 11:15:09;;;;;;;;;3.00;3.00;;;;;18.73;32.35;101910.69;5060899;28;46417;-74
2023/05/24 11:18:13;;;;;;;;;7.00;2.00;;;;;18.92;32.80;101941.22;5073800;28;45429;-74
2023/05/24 11:20:41;;;;;;;;;3.00;3.00;;;;;19.02;32.55;101934.25;5034714;28;45429;-72
2023/05/24 11:23:08;;;;;;;;;1.50;1.50;;;;;19.08;31.39;101931.13;5073692;28;45576;-74
2023/05/24 11:25:36;;;;;;;;;1.75;1.75;;;;;19.11;32.33;101930.06;5055384;28;47431;-74
2023/05/24 11:28:03;;;;;;;;;2.50;2.50;;;;;19.23;32.28;101923.84;5073645;28;45312;-75
2023/05/24 11:30:31;;;;;;;;;1.50;1.50;;;;;19.32;32.05;101931.41;5073563;28;45576;-74
2023/05/24 11:32:57;;;;;;;;;2.75;2.75;;;;;19.41;32.36;101943.56;5053420;28;45381;-73
2023/05/24 11:35:26;;;;;;;;;2.75;2.75;;;;;19.47;32.43;101937.75;5035132;28;46264;-75
2023/05/24 11:37:52;;;;;;;;;1.00;1.00;;;;;19.56;32.83;101929.03;5053520;28;45389;-75
2023/05/24 11:40:19;;;;;;;;;2.00;2.00;;;;;19.59;32.63;101928.81;5053591;28;45388;-74
2023/05/24 11:42:45;;;;;;;;;2.00;1.00;;;;;19.62;33.24;101928.63;5056768;28;45477;-74
2023/05/24 11:45:12;;;;;;;;;2.75;1.00;;;;;19.78;33.22;101921.22;5056394;28;45316;-74
2023/05/24 11:47:38;;;;;;;;;3.00;3.00;;;;;19.94;33.51;101927.38;5038324;28;45594;-73
2023/05/24 11:50:05;;;;;;;;;4.00;2.00;;;;;20.02;32.65;101935.03;5056378;28;45375;-74
2023/05/24 11:52:31;;;;;;;;;3.50;2.25;;;;;20.11;32.05;101936.28;5054471;28;45333;-74
2023/05/24 11:54:56;;;;;;;;;2.50;2.50;;;;;20.19;32.62;101923.00;5056427;28;46064;-75
2023/05/24 11:57:32;;;;;;;;;2.50;2.50;;;;;20.26;32.73;101922.50;5057812;28;45351;-75
2023/05/24 11:59:58;;;;;;;;;5.00;2.00;;;;;20.43;32.18;101915.06;5056693;28;45588;-73
2023/05/24 12:02:23;;;;;;;;;2.50;2.00;;;;;20.46;32.78;101921.19;5056403;28;45501;-75
2023/05/24 12:04:48;;;;;;;;;2.75;2.75;;;;;20.62;32.35;101934.63;5056603;28;46408;-75
2023/05/24 12:07:17;;;;;;;;;1.75;1.75;;;;;20.65;32.35;101907.16;5056227;28;49917;-73
2023/05/24 12:09:42;;;;;;;;;1.50;1.50;;;;;20.76;32.43;101913.59;5056409;28;45446;-74
2023/05/24 12:12:08;;;;;;;;;1.50;1.50;;;;;20.91;32.21;101918.97;5056002;28;45585;-74
2023/05/24 12:14:35;;;;;;;;;2.50;2.50;;;;;21.02;31.71;101916.31;5056154;28;45418;-75
2023/05/24 12:17:00;;;;;;;;;0.75;0.75;;;;;21.09;32.37;101909.47;5056348;28;45485;-74
2023/05/24 12:19:33;;;;;;;;;3.50;3.00;;;;;21.21;32.40;101903.16;5055922;28;45345;-75
2023/05/24 12:21:59;;;;;;;;;3.00;3.00;;;;;21.32;32.20;101900.53;5056125;28;45556;-74
2023/05/24 12:24:26;;;;;;;;;2.50;2.50;;;;;21.45;31.55;101901.38;5056107;28;46001;-75
2023/05/24 12:26:57;;;;;;;;;5.25;3.75;;;;;21.58;31.50;101889.56;5056090;28;45242;-75
2023/05/24 12:29:22;;;;;;;;;5.75;3.00;;;;;21.72;31.46;101901.22;5056120;28;45299;-73
2023/05/24 12:31:48;;;;;;;;;4.75;1.50;;;;;21.85;31.62;101891.13;5060262;28;45574;-73
2023/05/24 12:34:20;;;;;;;;;4.75;3.50;;;;;22.03;30.80;101888.03;5075760;28;45249;-75
2023/05/24 12:36:46;;;;;;;;;2.25;2.25;;;;;22.23;31.64;101890.97;5076147;28;45354;-75
2023/05/24 12:39:23;;;;;;;;;1.25;1.25;;;;;22.32;30.77;101881.19;5076122;28;45407;-75
2023/05/24 12:41:53;;;;;;;;;4.25;3.25;;;;;22.58;30.68;101885.50;5075968;28;45549;-73
2023/05/24 12:44:26;;;;;;;;;3.50;2.50;;;;;22.75;30.34;101881.47;5075851;28;47220;-74
2023/05/24 12:46:55;;;;;;;;;2.00;2.00;;;;;22.89;30.48;101881.25;5075564;28;45500;-74
2023/05/24 12:49:21;;;;;;;;;3.75;2.25;;;;;23.01;29.92;101882.16;5076049;28;45187;-74
2023/05/24 12:51:47;;;;;;;;;3.75;2.75;;;;;23.15;30.07;101879.16;5071233;28;45591;-75
2023/05/24 12:54:13;;;;;;;;;2.00;2.00;;;;;23.22;29.92;101863.97;5055774;28;46010;-73
2023/05/24 12:56:38;;;;;;;;;2.50;2.50;;;;;23.34;29.35;101857.53;5074528;27;45434;-74
2023/05/24 12:59:04;;;;;;;;;5.50;2.75;;;;;23.63;29.18;101871.59;5076165;28;45415;-75
2023/05/24 13:01:29;;;;;;;;;4.00;2.75;;;;;23.76;29.41;101852.25;5075411;28;45341;-75
2023/05/24 13:03:55;;;;;;;;;2.50;2.50;;;;;24.02;29.18;101859.13;5075981;28;45725;-74
2023/05/24 13:06:21;;;;;;;;;2.25;2.25;;;;;24.11;28.70;101855.63;5075668;28;45343;-75
2023/05/24 13:08:46;;;;;;;;;4.50;3.00;;;;;24.23;29.48;101859.22;5076060;28;45326;-74
2023/05/24 13:11:12;;;;;;;;;3.00;3.00;;;;;23.98;29.50;101846.72;5075574;28;45258;-75
2023/05/24 13:13:37;;;;;;;;;3.00;1.00;;;;;24.01;29.97;101853.78;5070642;28;45610;-74
2023/05/24 13:16:06;;;;;;;;;2.00;2.00;;;;;24.31;29.04;101853.09;5060421;28;45211;-75
2023/05/24 13:18:32;;;;;;;;;2.75;0.75;;;;;24.73;28.31;101853.97;5055890;28;45390;-74
2023/05/24 13:20:59;;;;;;;;;3.00;3.00;;;;;24.85;28.49;101852.84;5054885;28;45383;-73
2023/05/24 13:23:24;;;;;;;;;0.00;0.00;;;;;25.26;28.67;101841.81;5055473;28;46085;-74
2023/05/24 13:25:50;;;;;;;;;2.00;2.00;;;;;25.54;27.62;101840.19;5054834;28;45357;-74
2023/05/24 13:28:15;;;;;;;;;2.00;1.00;;;;;25.68;27.22;101835.34;5037116;28;45360;-73
2023/05/24 13:30:41;;;;;;;;;3.50;2.75;;;;;25.75;27.29;101834.63;5036507;28;45569;-74
2023/05/24 13:33:06;;;;;;;;;5.50;2.00;;;;;25.95;27.34;101832.75;5054970;28;56371;-74
2023/05/24 13:35:31;;;;;;;;;2.75;2.75;;;;;26.13;26.75;101832.91;5056547;28;45718;-74
2023/05/24 13:37:57;;;;;;;;;3.50;3.50;;;;;25.93;27.03;101829.31;5075955;28;45235;-74
2023/05/24 13:40:23;;;;;;;;;1.25;1.25;;;;;25.94;26.97;101828.31;5060691;28;45216;-75
2023/05/24 13:42:50;;;;;;;;;3.25;2.75;;;;;26.15;27.35;101825.41;5037621;28;45398;-76
2023/05/24 13:45:15;;;;;;;;;1.75;1.00;;;;;26.48;26.62;101827.72;5054509;28;45237;-74
2023/05/24 13:47:41;;;;;;;;;6.00;4.00;;;;;26.57;26.60;101823.22;5055333;28;45288;-73
2023/05/24 13:50:07;;;;;;;;;3.50;3.25;;;;;26.76;26.35;101812.16;5054685;28;45348;-73
2023/05/24 13:52:32;;;;;;;;;2.25;1.75;;;;;26.86;25.74;101804.75;5046674;28;46887;-74
2023/05/24 13:54:58;;;;;;;;;3.00;3.00;;;;;26.97;25.92;101806.47;5061419;28;46764;-75
2023/05/24 13:57:23;;;;;;;;;2.25;2.25;;;;;26.89;25.83;101820.06;5084346;27;45351;-73
2023/05/24 13:59:49;;;;;;;;;6.25;3.00;;;;;27.09;25.58;101805.25;5074697;28;45370;-74
2023/05/24 14:02:14;;;;;;;;;3.00;3.00;;;;;27.46;26.21;101803.34;5074855;28;45994;-74
2023/05/24 14:04:39;;;;;;;;;2.00;2.00;;;;;27.82;25.32;101790.47;5055603;28;45306;-74
2023/05/24 14:07:07;;;;;;;;;2.00;2.00;;;;;28.19;24.79;101798.63;5075068;28;45401;-74
2023/05/24 14:09:33;;;;;;;;;2.50;2.50;;;;;28.65;24.18;101799.31;5074928;28;45510;-74
2023/05/24 14:11:58;;;;;;;;;5.75;3.00;;;;;29.06;23.69;101772.84;5056602;28;45512;-74
2023/05/24 14:14:23;;;;;;;;;4.25;2.25;;;;;29.70;23.74;101802.59;5068206;28;45228;-74
2023/05/24 14:16:53;;;;;;;;;4.25;3.00;;;;;30.05;22.49;101798.72;5054653;28;45517;-77
2023/05/24 14:19:19;;;;;;;;;2.50;2.25;;;;;30.05;22.43;101784.88;5054189;28;45271;-75
2023/05/24 14:21:44;;;;;;;;;4.75;2.25;;;;;30.23;22.59;101801.31;5070024;28;45936;-73
2023/05/24 14:24:10;;;;;;;;;4.00;4.00;;;;;30.36;22.22;101787.84;5074623;28;47096;-74
2023/05/24 14:26:35;;;;;;;;;2.00;2.00;;;;;30.57;22.21;101789.22;5056759;28;45524;-75
2023/05/24 14:29:00;;;;;;;;;4.25;2.00;;;;;30.79;21.86;101789.34;5059743;28;45316;-76
2023/05/24 14:31:26;;;;;;;;;4.50;3.00;;;;;31.19;22.01;101791.16;5053973;28;46232;-75
2023/05/24 14:33:51;;;;;;;;;2.25;2.25;;;;;31.44;21.12;101782.72;5053732;28;45482;-82
2023/05/24 14:36:17;;;;;;;;;3.75;3.75;;;;;31.78;21.00;101787.91;5062434;28;46976;-83
2023/05/24 14:38:42;;;;;;;;;2.00;2.00;;;;;32.15;20.69;101790.75;5074319;28;45458;-83
2023/05/24 14:41:08;;;;;;;;;3.50;3.50;;;;;32.11;20.63;101774.66;5074853;28;45661;-83
2023/05/24 14:43:35;;;;;;;;;2.00;2.00;;;;;32.08;20.25;101764.78;5056534;28;45379;-82
2023/05/24 14:46:00;;;;;;;;;2.50;2.50;;;;;31.91;19.98;101755.75;5056237;28;45692;-82
2023/05/24 14:48:26;;;;;;;;;2.50;2.50;;;;;31.98;20.19;101757.78;5074514;28;45343;-82
2023/05/24 14:50:51;;;;;;;;;3.00;3.00;;;;;31.94;19.76;101749.84;5080980;28;46301;-83
2023/05/24 14:53:17;;;;;;;;;4.00;2.25;;;;;31.97;20.62;101759.69;5077842;28;45339;-84
2023/05/24 14:55:42;;;;;;;;;2.00;2.00;;;;;32.16;20.63;101752.78;5063205;27;45585;-83
2023/05/24 14:58:08;;;;;;;;;2.75;2.75;;;;;32.57;20.26;101769.94;5072545;28;46015;-83
2023/05/24 15:00:35;;;;;;;;;2.75;2.75;;;;;32.37;19.48;101743.75;5074223;28;46205;-83
2023/05/24 15:03:00;;;;;;;;;4.75;4.25;;;;;32.35;19.98;101754.19;5074446;28;45389;-82
2023/05/24 15:05:25;;;;;;;;;3.75;2.75;;;;;32.55;20.58;101772.91;5074775;28;45287;-83
2023/05/24 15:07:51;;;;;;;;;2.25;1.50;;;;;32.45;19.86;101761.19;5074305;28;45390;-81
2023/05/24 15:10:16;;;;;;;;;3.00;3.00;;;;;31.87;19.93;101757.16;5074596;28;46009;-82
2023/05/24 15:12:43;;;;;;;;;5.25;4.50;;;;;31.39;20.88;101732.53;5069395;28;45186;-82
2023/05/24 15:15:09;;;;;;;;;3.00;3.00;;;;;31.07;20.96;101751.03;5072679;28;45342;-82
2023/05/24 15:17:35;;;;;;;;;3.25;2.25;;;;;30.66;21.09;101730.03;5077488;28;45240;-82
2023/05/24 15:20:01;;;;;;;;;3.25;3.00;;;;;30.61;20.81;101761.03;5077665;28;45496;-81
2023/05/24 15:22:26;;;;;;;;;3.00;2.50;;;;;30.33;21.80;101771.59;5077351;28;45410;-76
2023/05/24 15:24:51;;;;;;;;;4.25;3.00;;;;;30.02;22.32;101779.72;5066713;28;45575;-81
2023/05/24 15:27:17;;;;;;;;;3.50;3.50;;;;;29.76;22.31;101767.91;5066093;28;45585;-80
2023/05/24 15:29:42;;;;;;;;;3.00;3.00;;;;;29.52;23.29;101765.94;5066281;28;45814;-79
2023/05/24 15:32:08;;;;;;;;;3.00;3.00;;;;;29.32;23.68;101781.94;5050717;28;45552;-78
2023/05/24 15:34:33;;;;;;;;;4.00;4.00;;;;;29.10;23.56;101774.22;5051814;28;45364;-81
2023/05/24 15:36:58;;;;;;;;;6.50;4.25;;;;;28.95;23.70;101774.00;5051192;28;45355;-79
2023/05/24 15:39:23;;;;;;;;;4.25;4.25;;;;;28.89;24.29;101780.19;5052405;28;45393;-79
2023/05/24 15:41:49;;;;;;;;;3.00;3.00;;;;;29.01;23.48;101763.34;5051388;28;45608;-77
2023/05/24 15:44:14;;;;;;;;;5.00;4.00;;;;;29.06;24.19;101770.06;5028818;28;45417;-79
2023/05/24 15:46:40;;;;;;;;;4.00;3.00;;;;;28.98;23.58;101773.66;5053163;28;45329;-79
2023/05/24 15:49:05;;;;;;;;;6.25;3.00;;;;;28.77;24.48;101773.19;5040983;28;45410;-78
2023/05/24 15:51:32;;;;;;;;;5.25;5.25;;;;;28.50;24.17;101773.31;5048540;28;45489;-79